Terminal Aerodrome Forecast
Issued by NWS

Home | Current Version | Previous Version | Text Only | Print | Product List | Glossary On
Versions: 1 2 3 4 5 6 7 8 9 10 11 12 13
000
FTUS44 KBMX 211726
TAFEET
TAF
KEET 211726Z 2118/2218 13007KT P6SM FEW040 BKN250
     FM220000 12004KT P6SM BKN250
     FM221000 13005KT P6SM SCT040 BKN150
     FM221300 13008KT P6SM BKN040=

USA.gov is the U.S. government's official web portal to all federal, state and local government web resources and services.